sensor_id;sensor_type;location;lat;lon;timestamp;P1;durP1;ratioP1;P2;durP2;ratioP2
60241;SDS011;46103;52.076;113.488;2023-05-29T00:01:50;4.60;;;1.88;;
60241;SDS011;46103;52.076;113.488;2023-05-29T00:04:56;7.22;;;2.08;;
60241;SDS011;46103;52.076;113.488;2023-05-29T00:08:00;7.35;;;2.00;;
60241;SDS011;46103;52.076;113.488;2023-05-29T00:11:12;6.10;;;2.03;;
60241;SDS011;46103;52.076;113.488;2023-05-29T00:14:22;7.68;;;2.00;;
60241;SDS011;46103;52.076;113.488;2023-05-29T00:17:32;7.63;;;2.42;;
60241;SDS011;46103;52.076;113.488;2023-05-29T00:20:41;7.40;;;2.08;;
60241;SDS011;46103;52.076;113.488;2023-05-29T00:23:51;8.43;;;2.42;;
60241;SDS011;46103;52.076;113.488;2023-05-29T00:26:58;7.00;;;2.00;;
60241;SDS011;46103;52.076;113.488;2023-05-29T00:30:05;7.83;;;2.30;;
60241;SDS011;46103;52.076;113.488;2023-05-29T00:33:09;5.95;;;3.20;;
60241;SDS011;46103;52.076;113.488;2023-05-29T00:36:17;4.63;;;2.17;;
60241;SDS011;46103;52.076;113.488;2023-05-29T00:39:25;4.43;;;2.13;;
60241;SDS011;46103;52.076;113.488;2023-05-29T00:42:32;6.50;;;2.30;;
60241;SDS011;46103;52.076;113.488;2023-05-29T00:45:39;7.28;;;2.33;;
60241;SDS011;46103;52.076;113.488;2023-05-29T00:48:47;7.80;;;2.25;;
60241;SDS011;46103;52.076;113.488;2023-05-29T00:51:54;8.50;;;2.47;;
60241;SDS011;46103;52.076;113.488;2023-05-29T00:55:01;7.00;;;2.83;;
60241;SDS011;46103;52.076;113.488;2023-05-29T01:01:15;8.80;;;2.65;;
60241;SDS011;46103;52.076;113.488;2023-05-29T01:04:25;5.28;;;2.00;;
60241;SDS011;46103;52.076;113.488;2023-05-29T01:07:33;5.50;;;2.60;;
60241;SDS011;46103;52.076;113.488;2023-05-29T01:10:38;4.05;;;2.05;;
60241;SDS011;46103;52.076;113.488;2023-05-29T01:13:46;5.45;;;1.73;;
60241;SDS011;46103;52.076;113.488;2023-05-29T01:20:34;6.20;;;2.13;;
60241;SDS011;46103;52.076;113.488;2023-05-29T01:27:11;7.95;;;2.40;;
60241;SDS011;46103;52.076;113.488;2023-05-29T01:30:20;9.52;;;2.45;;
60241;SDS011;46103;52.076;113.488;2023-05-29T01:36:33;4.90;;;2.17;;
60241;SDS011;46103;52.076;113.488;2023-05-29T01:39:36;5.90;;;2.88;;
60241;SDS011;46103;52.076;113.488;2023-05-29T01:42:40;8.23;;;2.50;;
60241;SDS011;46103;52.076;113.488;2023-05-29T01:45:43;5.45;;;2.30;;
60241;SDS011;46103;52.076;113.488;2023-05-29T01:48:47;5.88;;;2.05;;
60241;SDS011;46103;52.076;113.488;2023-05-29T01:51:51;7.00;;;2.20;;
60241;SDS011;46103;52.076;113.488;2023-05-29T01:54:54;5.07;;;2.22;;
60241;SDS011;46103;52.076;113.488;2023-05-29T01:57:57;5.82;;;2.20;;
60241;SDS011;46103;52.076;113.488;2023-05-29T02:01:03;5.45;;;3.05;;
60241;SDS011;46103;52.076;113.488;2023-05-29T02:04:07;4.60;;;2.15;;
60241;SDS011;46103;52.076;113.488;2023-05-29T02:07:11;7.03;;;2.20;;
60241;SDS011;46103;52.076;113.488;2023-05-29T02:10:15;4.50;;;1.83;;
60241;SDS011;46103;52.076;113.488;2023-05-29T02:13:18;8.05;;;2.47;;
60241;SDS011;46103;52.076;113.488;2023-05-29T02:16:23;6.85;;;2.00;;
60241;SDS011;46103;52.076;113.488;2023-05-29T02:19:27;3.83;;;1.60;;
60241;SDS011;46103;52.076;113.488;2023-05-29T02:22:30;5.82;;;2.05;;
60241;SDS011;46103;52.076;113.488;2023-05-29T02:25:34;7.35;;;2.35;;
60241;SDS011;46103;52.076;113.488;2023-05-29T02:28:39;6.03;;;2.20;;
60241;SDS011;46103;52.076;113.488;2023-05-29T02:31:43;4.82;;;2.03;;
60241;SDS011;46103;52.076;113.488;2023-05-29T02:34:47;4.07;;;1.90;;
60241;SDS011;46103;52.076;113.488;2023-05-29T02:37:50;6.25;;;2.28;;
60241;SDS011;46103;52.076;113.488;2023-05-29T02:40:53;8.35;;;2.40;;
60241;SDS011;46103;52.076;113.488;2023-05-29T02:43:59;5.82;;;2.05;;
60241;SDS011;46103;52.076;113.488;2023-05-29T02:47:03;4.88;;;2.20;;
60241;SDS011;46103;52.076;113.488;2023-05-29T02:50:07;2.70;;;1.67;;
60241;SDS011;46103;52.076;113.488;2023-05-29T02:53:11;4.10;;;1.92;;
60241;SDS011;46103;52.076;113.488;2023-05-29T02:56:15;4.97;;;1.90;;
60241;SDS011;46103;52.076;113.488;2023-05-29T02:59:18;3.40;;;1.50;;
60241;SDS011;46103;52.076;113.488;2023-05-29T03:02:22;2.45;;;1.40;;
60241;SDS011;46103;52.076;113.488;2023-05-29T03:05:26;2.13;;;1.27;;
60241;SDS011;46103;52.076;113.488;2023-05-29T03:08:31;4.35;;;1.52;;
60241;SDS011;46103;52.076;113.488;2023-05-29T03:11:37;5.47;;;1.70;;
60241;SDS011;46103;52.076;113.488;2023-05-29T03:14:40;2.40;;;1.60;;
60241;SDS011;46103;52.076;113.488;2023-05-29T03:17:46;4.27;;;1.30;;
60241;SDS011;46103;52.076;113.488;2023-05-29T03:20:54;2.47;;;1.60;;
60241;SDS011;46103;52.076;113.488;2023-05-29T03:23:59;4.63;;;1.80;;
60241;SDS011;46103;52.076;113.488;2023-05-29T03:27:04;4.45;;;2.00;;
60241;SDS011;46103;52.076;113.488;2023-05-29T03:30:09;3.35;;;1.88;;
60241;SDS011;46103;52.076;113.488;2023-05-29T03:33:12;3.78;;;1.90;;
60241;SDS011;46103;52.076;113.488;2023-05-29T03:36:38;3.15;;;1.60;;
60241;SDS011;46103;52.076;113.488;2023-05-29T03:39:42;4.50;;;1.98;;
60241;SDS011;46103;52.076;113.488;2023-05-29T03:42:47;4.93;;;1.30;;
60241;SDS011;46103;52.076;113.488;2023-05-29T03:45:51;8.77;;;1.88;;
60241;SDS011;46103;52.076;113.488;2023-05-29T03:48:55;4.68;;;2.00;;
60241;SDS011;46103;52.076;113.488;2023-05-29T03:51:59;2.70;;;1.30;;
60241;SDS011;46103;52.076;113.488;2023-05-29T03:55:04;2.85;;;1.58;;
60241;SDS011;46103;52.076;113.488;2023-05-29T03:58:12;3.30;;;1.50;;
60241;SDS011;46103;52.076;113.488;2023-05-29T04:01:16;4.00;;;1.70;;
60241;SDS011;46103;52.076;113.488;2023-05-29T04:04:20;4.15;;;1.63;;
60241;SDS011;46103;52.076;113.488;2023-05-29T04:07:24;6.15;;;1.85;;
60241;SDS011;46103;52.076;113.488;2023-05-29T04:10:28;2.40;;;1.60;;
60241;SDS011;46103;52.076;113.488;2023-05-29T04:13:37;2.40;;;1.45;;
60241;SDS011;46103;52.076;113.488;2023-05-29T04:16:41;2.75;;;1.60;;
60241;SDS011;46103;52.076;113.488;2023-05-29T04:19:45;4.55;;;1.98;;
60241;SDS011;46103;52.076;113.488;2023-05-29T04:22:51;6.13;;;2.05;;
60241;SDS011;46103;52.076;113.488;2023-05-29T04:25:58;4.93;;;1.73;;
60241;SDS011;46103;52.076;113.488;2023-05-29T04:29:05;4.38;;;1.70;;
60241;SDS011;46103;52.076;113.488;2023-05-29T04:32:10;2.90;;;1.67;;
60241;SDS011;46103;52.076;113.488;2023-05-29T04:35:15;8.10;;;1.80;;
60241;SDS011;46103;52.076;113.488;2023-05-29T04:38:27;3.67;;;1.88;;
60241;SDS011;46103;52.076;113.488;2023-05-29T04:41:32;4.45;;;1.90;;
60241;SDS011;46103;52.076;113.488;2023-05-29T04:44:39;3.25;;;1.40;;
60241;SDS011;46103;52.076;113.488;2023-05-29T04:47:45;3.65;;;1.63;;
60241;SDS011;46103;52.076;113.488;2023-05-29T04:50:58;2.13;;;1.40;;
60241;SDS011;46103;52.076;113.488;2023-05-29T04:54:12;3.25;;;1.77;;
60241;SDS011;46103;52.076;113.488;2023-05-29T04:57:15;3.72;;;1.80;;
60241;SDS011;46103;52.076;113.488;2023-05-29T05:00:22;5.50;;;1.95;;
60241;SDS011;46103;52.076;113.488;2023-05-29T05:03:26;3.80;;;1.95;;
60241;SDS011;46103;52.076;113.488;2023-05-29T05:06:30;2.47;;;1.60;;
60241;SDS011;46103;52.076;113.488;2023-05-29T05:09:33;7.00;;;2.00;;
60241;SDS011;46103;52.076;113.488;2023-05-29T05:12:37;3.20;;;1.42;;
60241;SDS011;46103;52.076;113.488;2023-05-29T05:15:41;5.88;;;1.70;;
60241;SDS011;46103;52.076;113.488;2023-05-29T05:18:44;3.55;;;1.90;;
60241;SDS011;46103;52.076;113.488;2023-05-29T05:21:48;3.38;;;1.50;;
60241;SDS011;46103;52.076;113.488;2023-05-29T05:24:56;2.22;;;1.45;;
60241;SDS011;46103;52.076;113.488;2023-05-29T05:28:02;2.17;;;1.23;;
60241;SDS011;46103;52.076;113.488;2023-05-29T05:31:09;4.13;;;1.70;;
60241;SDS011;46103;52.076;113.488;2023-05-29T05:34:14;2.75;;;1.58;;
60241;SDS011;46103;52.076;113.488;2023-05-29T05:37:18;3.65;;;1.70;;
60241;SDS011;46103;52.076;113.488;2023-05-29T05:40:21;4.95;;;1.70;;
60241;SDS011;46103;52.076;113.488;2023-05-29T05:43:32;2.53;;;1.50;;
60241;SDS011;46103;52.076;113.488;2023-05-29T05:46:53;4.53;;;1.60;;
60241;SDS011;46103;52.076;113.488;2023-05-29T05:49:57;2.42;;;1.50;;
60241;SDS011;46103;52.076;113.488;2023-05-29T05:53:03;6.32;;;1.75;;
60241;SDS011;46103;52.076;113.488;2023-05-29T05:56:06;2.88;;;1.50;;
60241;SDS011;46103;52.076;113.488;2023-05-29T05:59:10;6.72;;;1.73;;
60241;SDS011;46103;52.076;113.488;2023-05-29T06:02:15;5.35;;;1.23;;
60241;SDS011;46103;52.076;113.488;2023-05-29T06:05:19;4.05;;;1.63;;
60241;SDS011;46103;52.076;113.488;2023-05-29T06:08:23;6.10;;;1.70;;
60241;SDS011;46103;52.076;113.488;2023-05-29T06:11:27;3.13;;;1.55;;
60241;SDS011;46103;52.076;113.488;2023-05-29T06:14:31;2.72;;;1.70;;
60241;SDS011;46103;52.076;113.488;2023-05-29T06:17:34;5.63;;;1.65;;
60241;SDS011;46103;52.076;113.488;2023-05-29T06:20:38;3.30;;;1.80;;
60241;SDS011;46103;52.076;113.488;2023-05-29T06:23:42;4.20;;;1.33;;
60241;SDS011;46103;52.076;113.488;2023-05-29T06:26:46;10.82;;;1.63;;
60241;SDS011;46103;52.076;113.488;2023-05-29T06:29:50;4.55;;;1.60;;
60241;SDS011;46103;52.076;113.488;2023-05-29T06:32:54;4.30;;;2.15;;
60241;SDS011;46103;52.076;113.488;2023-05-29T06:36:04;2.70;;;1.70;;
60241;SDS011;46103;52.076;113.488;2023-05-29T06:39:16;4.30;;;1.40;;
60241;SDS011;46103;52.076;113.488;2023-05-29T06:42:20;2.38;;;1.30;;
60241;SDS011;46103;52.076;113.488;2023-05-29T06:45:31;2.30;;;1.60;;
60241;SDS011;46103;52.076;113.488;2023-05-29T06:48:35;9.02;;;1.88;;
60241;SDS011;46103;52.076;113.488;2023-05-29T06:51:38;4.65;;;1.98;;
60241;SDS011;46103;52.076;113.488;2023-05-29T06:55:10;7.10;;;1.48;;
60241;SDS011;46103;52.076;113.488;2023-05-29T06:58:14;2.35;;;1.50;;
60241;SDS011;46103;52.076;113.488;2023-05-29T07:05:02;6.95;;;1.83;;
60241;SDS011;46103;52.076;113.488;2023-05-29T07:08:06;3.08;;;1.50;;
60241;SDS011;46103;52.076;113.488;2023-05-29T07:11:10;4.53;;;1.90;;
60241;SDS011;46103;52.076;113.488;2023-05-29T07:14:13;8.82;;;2.95;;
60241;SDS011;46103;52.076;113.488;2023-05-29T07:17:17;11.85;;;2.08;;
60241;SDS011;46103;52.076;113.488;2023-05-29T07:20:25;5.00;;;1.70;;
60241;SDS011;46103;52.076;113.488;2023-05-29T07:23:29;5.60;;;2.00;;
60241;SDS011;46103;52.076;113.488;2023-05-29T07:26:33;4.72;;;2.00;;
60241;SDS011;46103;52.076;113.488;2023-05-29T07:29:37;3.05;;;1.70;;
60241;SDS011;46103;52.076;113.488;2023-05-29T07:32:40;4.28;;;1.80;;
60241;SDS011;46103;52.076;113.488;2023-05-29T07:35:44;2.47;;;1.60;;
60241;SDS011;46103;52.076;113.488;2023-05-29T07:38:49;4.03;;;1.63;;
60241;SDS011;46103;52.076;113.488;2023-05-29T07:41:53;3.97;;;1.70;;
60241;SDS011;46103;52.076;113.488;2023-05-29T07:44:58;4.68;;;1.70;;
60241;SDS011;46103;52.076;113.488;2023-05-29T07:48:02;2.65;;;1.58;;
60241;SDS011;46103;52.076;113.488;2023-05-29T07:51:06;4.07;;;2.05;;
60241;SDS011;46103;52.076;113.488;2023-05-29T07:54:17;2.58;;;1.55;;
60241;SDS011;46103;52.076;113.488;2023-05-29T07:57:23;2.35;;;1.65;;
60241;SDS011;46103;52.076;113.488;2023-05-29T08:00:30;2.65;;;1.67;;
60241;SDS011;46103;52.076;113.488;2023-05-29T08:03:36;3.47;;;1.65;;
60241;SDS011;46103;52.076;113.488;2023-05-29T08:07:03;11.10;;;2.20;;
60241;SDS011;46103;52.076;113.488;2023-05-29T08:10:07;5.00;;;1.90;;
60241;SDS011;46103;52.076;113.488;2023-05-29T08:13:11;5.57;;;1.85;;
60241;SDS011;46103;52.076;113.488;2023-05-29T08:16:16;4.83;;;1.70;;
60241;SDS011;46103;52.076;113.488;2023-05-29T08:19:21;4.15;;;1.60;;
60241;SDS011;46103;52.076;113.488;2023-05-29T08:22:29;12.73;;;2.17;;
60241;SDS011;46103;52.076;113.488;2023-05-29T08:25:33;5.50;;;1.88;;
60241;SDS011;46103;52.076;113.488;2023-05-29T08:28:37;2.95;;;1.80;;
60241;SDS011;46103;52.076;113.488;2023-05-29T08:31:43;5.07;;;2.42;;
60241;SDS011;46103;52.076;113.488;2023-05-29T08:34:47;5.20;;;1.90;;
60241;SDS011;46103;52.076;113.488;2023-05-29T08:37:54;5.13;;;2.03;;
60241;SDS011;46103;52.076;113.488;2023-05-29T08:40:58;3.40;;;2.47;;
60241;SDS011;46103;52.076;113.488;2023-05-29T08:44:03;3.42;;;1.70;;
60241;SDS011;46103;52.076;113.488;2023-05-29T08:47:09;6.00;;;1.73;;
60241;SDS011;46103;52.076;113.488;2023-05-29T08:50:19;9.70;;;2.10;;
60241;SDS011;46103;52.076;113.488;2023-05-29T08:56:29;5.30;;;1.85;;
60241;SDS011;46103;52.076;113.488;2023-05-29T08:59:36;3.72;;;2.00;;
60241;SDS011;46103;52.076;113.488;2023-05-29T09:02:43;7.20;;;2.00;;
60241;SDS011;46103;52.076;113.488;2023-05-29T09:05:48;4.47;;;1.95;;
60241;SDS011;46103;52.076;113.488;2023-05-29T09:08:52;4.78;;;1.70;;
60241;SDS011;46103;52.076;113.488;2023-05-29T09:11:56;6.85;;;1.90;;
60241;SDS011;46103;52.076;113.488;2023-05-29T09:15:01;8.27;;;1.80;;
60241;SDS011;46103;52.076;113.488;2023-05-29T09:18:06;3.88;;;2.00;;
60241;SDS011;46103;52.076;113.488;2023-05-29T09:21:17;3.70;;;1.63;;
60241;SDS011;46103;52.076;113.488;2023-05-29T09:24:29;7.35;;;2.50;;
60241;SDS011;46103;52.076;113.488;2023-05-29T09:27:38;6.63;;;2.20;;
60241;SDS011;46103;52.076;113.488;2023-05-29T09:30:44;8.13;;;2.10;;
60241;SDS011;46103;52.076;113.488;2023-05-29T09:33:52;5.55;;;2.03;;
60241;SDS011;46103;52.076;113.488;2023-05-29T09:37:00;7.30;;;2.05;;
60241;SDS011;46103;52.076;113.488;2023-05-29T09:40:10;8.18;;;2.20;;
60241;SDS011;46103;52.076;113.488;2023-05-29T09:43:15;5.60;;;2.10;;
60241;SDS011;46103;52.076;113.488;2023-05-29T09:46:20;5.10;;;2.03;;
60241;SDS011;46103;52.076;113.488;2023-05-29T09:49:24;2.25;;;1.70;;
60241;SDS011;46103;52.076;113.488;2023-05-29T09:52:30;2.38;;;1.60;;
60241;SDS011;46103;52.076;113.488;2023-05-29T09:55:34;3.33;;;1.70;;
60241;SDS011;46103;52.076;113.488;2023-05-29T09:58:39;3.58;;;1.60;;
60241;SDS011;46103;52.076;113.488;2023-05-29T10:01:49;2.88;;;1.63;;
60241;SDS011;46103;52.076;113.488;2023-05-29T10:05:10;4.28;;;1.80;;
60241;SDS011;46103;52.076;113.488;2023-05-29T10:08:19;3.70;;;1.75;;
60241;SDS011;46103;52.076;113.488;2023-05-29T10:11:23;3.55;;;1.90;;
60241;SDS011;46103;52.076;113.488;2023-05-29T10:14:29;5.25;;;1.80;;
60241;SDS011;46103;52.076;113.488;2023-05-29T10:17:35;4.07;;;1.60;;
60241;SDS011;46103;52.076;113.488;2023-05-29T10:20:43;3.03;;;1.60;;
60241;SDS011;46103;52.076;113.488;2023-05-29T10:23:48;3.47;;;1.87;;
60241;SDS011;46103;52.076;113.488;2023-05-29T10:26:53;5.75;;;2.35;;
60241;SDS011;46103;52.076;113.488;2023-05-29T10:30:11;2.47;;;1.58;;
60241;SDS011;46103;52.076;113.488;2023-05-29T10:37:08;7.15;;;2.35;;
60241;SDS011;46103;52.076;113.488;2023-05-29T10:40:22;3.35;;;1.63;;
60241;SDS011;46103;52.076;113.488;2023-05-29T10:43:31;5.38;;;2.10;;
60241;SDS011;46103;52.076;113.488;2023-05-29T10:49:51;2.85;;;1.73;;
60241;SDS011;46103;52.076;113.488;2023-05-29T10:52:55;3.30;;;1.70;;
60241;SDS011;46103;52.076;113.488;2023-05-29T10:55:59;2.85;;;2.00;;
60241;SDS011;46103;52.076;113.488;2023-05-29T10:59:07;3.20;;;1.70;;
60241;SDS011;46103;52.076;113.488;2023-05-29T11:02:16;3.45;;;1.85;;
60241;SDS011;46103;52.076;113.488;2023-05-29T11:05:22;3.42;;;1.90;;
60241;SDS011;46103;52.076;113.488;2023-05-29T11:08:47;3.20;;;1.77;;
60241;SDS011;46103;52.076;113.488;2023-05-29T11:15:36;3.08;;;1.83;;
60241;SDS011;46103;52.076;113.488;2023-05-29T11:18:42;3.17;;;1.80;;
60241;SDS011;46103;52.076;113.488;2023-05-29T11:21:57;4.88;;;1.83;;
60241;SDS011;46103;52.076;113.488;2023-05-29T11:25:14;5.72;;;2.30;;
60241;SDS011;46103;52.076;113.488;2023-05-29T11:28:18;3.78;;;1.88;;
60241;SDS011;46103;52.076;113.488;2023-05-29T11:31:23;2.80;;;1.98;;
60241;SDS011;46103;52.076;113.488;2023-05-29T11:34:32;3.40;;;1.90;;
60241;SDS011;46103;52.076;113.488;2023-05-29T11:37:37;4.63;;;1.88;;
60241;SDS011;46103;52.076;113.488;2023-05-29T11:40:43;7.40;;;2.20;;
60241;SDS011;46103;52.076;113.488;2023-05-29T11:43:56;4.90;;;2.05;;
60241;SDS011;46103;52.076;113.488;2023-05-29T11:47:08;5.22;;;2.33;;
60241;SDS011;46103;52.076;113.488;2023-05-29T11:50:19;4.90;;;2.00;;
60241;SDS011;46103;52.076;113.488;2023-05-29T11:53:25;6.45;;;1.88;;
60241;SDS011;46103;52.076;113.488;2023-05-29T11:56:34;4.00;;;2.00;;
60241;SDS011;46103;52.076;113.488;2023-05-29T11:59:38;7.20;;;2.50;;
60241;SDS011;46103;52.076;113.488;2023-05-29T12:02:45;10.85;;;2.40;;
60241;SDS011;46103;52.076;113.488;2023-05-29T12:05:51;5.13;;;2.20;;
60241;SDS011;46103;52.076;113.488;2023-05-29T12:08:59;5.13;;;2.40;;
60241;SDS011;46103;52.076;113.488;2023-05-29T12:12:06;4.10;;;2.00;;
60241;SDS011;46103;52.076;113.488;2023-05-29T12:15:16;4.10;;;2.20;;
60241;SDS011;46103;52.076;113.488;2023-05-29T12:18:46;6.28;;;2.17;;
60241;SDS011;46103;52.076;113.488;2023-05-29T12:21:57;3.92;;;2.25;;
60241;SDS011;46103;52.076;113.488;2023-05-29T12:25:15;4.38;;;2.25;;
60241;SDS011;46103;52.076;113.488;2023-05-29T12:28:42;4.82;;;2.10;;
60241;SDS011;46103;52.076;113.488;2023-05-29T12:31:57;3.13;;;1.95;;
60241;SDS011;46103;52.076;113.488;2023-05-29T12:38:20;5.57;;;2.83;;
60241;SDS011;46103;52.076;113.488;2023-05-29T12:41:33;4.30;;;2.10;;
60241;SDS011;46103;52.076;113.488;2023-05-29T12:44:52;7.97;;;2.90;;
60241;SDS011;46103;52.076;113.488;2023-05-29T12:48:03;10.55;;;3.53;;
60241;SDS011;46103;52.076;113.488;2023-05-29T12:51:26;18.23;;;4.65;;
60241;SDS011;46103;52.076;113.488;2023-05-29T12:54:51;16.98;;;6.07;;
60241;SDS011;46103;52.076;113.488;2023-05-29T12:58:01;14.52;;;6.05;;
60241;SDS011;46103;52.076;113.488;2023-05-29T13:01:11;18.70;;;6.60;;
60241;SDS011;46103;52.076;113.488;2023-05-29T13:04:30;15.25;;;4.90;;
60241;SDS011;46103;52.076;113.488;2023-05-29T13:07:46;13.93;;;4.70;;
60241;SDS011;46103;52.076;113.488;2023-05-29T13:14:05;10.07;;;4.45;;
60241;SDS011;46103;52.076;113.488;2023-05-29T13:17:12;13.15;;;4.63;;
60241;SDS011;46103;52.076;113.488;2023-05-29T13:20:16;15.50;;;5.15;;
60241;SDS011;46103;52.076;113.488;2023-05-29T13:23:21;12.18;;;4.35;;
60241;SDS011;46103;52.076;113.488;2023-05-29T13:26:28;20.45;;;6.93;;
60241;SDS011;46103;52.076;113.488;2023-05-29T13:29:32;34.67;;;14.07;;
60241;SDS011;46103;52.076;113.488;2023-05-29T13:32:35;20.60;;;7.28;;
60241;SDS011;46103;52.076;113.488;2023-05-29T13:35:40;18.50;;;6.22;;
60241;SDS011;46103;52.076;113.488;2023-05-29T13:38:44;25.27;;;7.90;;
60241;SDS011;46103;52.076;113.488;2023-05-29T13:42:03;16.60;;;5.97;;
60241;SDS011;46103;52.076;113.488;2023-05-29T13:45:22;13.88;;;5.63;;
60241;SDS011;46103;52.076;113.488;2023-05-29T13:49:46;13.90;;;6.03;;
60241;SDS011;46103;52.076;113.488;2023-05-29T13:52:49;14.05;;;6.72;;
60241;SDS011;46103;52.076;113.488;2023-05-29T13:55:58;18.33;;;7.88;;
60241;SDS011;46103;52.076;113.488;2023-05-29T13:59:16;15.00;;;6.80;;
60241;SDS011;46103;52.076;113.488;2023-05-29T14:02:33;17.33;;;7.45;;
60241;SDS011;46103;52.076;113.488;2023-05-29T14:06:09;30.95;;;8.52;;
60241;SDS011;46103;52.076;113.488;2023-05-29T14:09:14;19.88;;;8.45;;
60241;SDS011;46103;52.076;113.488;2023-05-29T14:12:23;13.32;;;7.15;;
60241;SDS011;46103;52.076;113.488;2023-05-29T14:15:43;22.88;;;7.95;;
60241;SDS011;46103;52.076;113.488;2023-05-29T14:19:02;28.15;;;11.50;;
60241;SDS011;46103;52.076;113.488;2023-05-29T14:22:06;17.60;;;8.30;;
60241;SDS011;46103;52.076;113.488;2023-05-29T14:25:32;17.23;;;8.38;;
60241;SDS011;46103;52.076;113.488;2023-05-29T14:32:22;17.73;;;8.60;;
60241;SDS011;46103;52.076;113.488;2023-05-29T14:41:33;18.85;;;7.45;;
60241;SDS011;46103;52.076;113.488;2023-05-29T14:50:14;24.20;;;9.88;;
60241;SDS011;46103;52.076;113.488;2023-05-29T14:54:55;35.03;;;11.45;;
60241;SDS011;46103;52.076;113.488;2023-05-29T14:59:44;21.75;;;9.20;;
60241;SDS011;46103;52.076;113.488;2023-05-29T15:03:08;27.23;;;11.27;;
60241;SDS011;46103;52.076;113.488;2023-05-29T15:07:05;29.90;;;9.38;;
60241;SDS011;46103;52.076;113.488;2023-05-29T15:10:18;29.35;;;11.75;;
60241;SDS011;46103;52.076;113.488;2023-05-29T15:14:17;19.85;;;8.57;;
60241;SDS011;46103;52.076;113.488;2023-05-29T15:19:02;18.55;;;8.10;;
60241;SDS011;46103;52.076;113.488;2023-05-29T15:22:55;22.52;;;7.43;;
60241;SDS011;46103;52.076;113.488;2023-05-29T15:25:59;24.38;;;8.57;;
60241;SDS011;46103;52.076;113.488;2023-05-29T15:29:04;23.60;;;7.35;;
60241;SDS011;46103;52.076;113.488;2023-05-29T15:32:08;17.60;;;7.10;;
60241;SDS011;46103;52.076;113.488;2023-05-29T15:35:12;23.52;;;6.97;;
60241;SDS011;46103;52.076;113.488;2023-05-29T15:38:20;21.25;;;6.88;;
60241;SDS011;46103;52.076;113.488;2023-05-29T15:41:25;16.08;;;7.07;;
60241;SDS011;46103;52.076;113.488;2023-05-29T15:44:33;18.67;;;6.28;;
60241;SDS011;46103;52.076;113.488;2023-05-29T15:47:41;20.20;;;7.40;;
60241;SDS011;46103;52.076;113.488;2023-05-29T15:50:47;24.85;;;8.85;;
60241;SDS011;46103;52.076;113.488;2023-05-29T15:53:53;16.85;;;6.18;;
60241;SDS011;46103;52.076;113.488;2023-05-29T15:56:58;25.85;;;6.45;;
60241;SDS011;46103;52.076;113.488;2023-05-29T16:00:07;20.77;;;5.95;;
60241;SDS011;46103;52.076;113.488;2023-05-29T16:03:15;14.57;;;5.70;;
60241;SDS011;46103;52.076;113.488;2023-05-29T16:06:19;18.60;;;6.32;;
60241;SDS011;46103;52.076;113.488;2023-05-29T16:09:24;18.67;;;6.63;;
60241;SDS011;46103;52.076;113.488;2023-05-29T16:12:29;13.23;;;5.35;;
60241;SDS011;46103;52.076;113.488;2023-05-29T16:15:35;19.85;;;6.70;;
60241;SDS011;46103;52.076;113.488;2023-05-29T16:18:41;17.63;;;5.93;;
60241;SDS011;46103;52.076;113.488;2023-05-29T16:21:46;18.98;;;6.20;;
60241;SDS011;46103;52.076;113.488;2023-05-29T16:24:52;20.83;;;6.30;;
60241;SDS011;46103;52.076;113.488;2023-05-29T16:27:56;14.55;;;6.07;;
60241;SDS011;46103;52.076;113.488;2023-05-29T16:31:02;12.50;;;5.57;;
60241;SDS011;46103;52.076;113.488;2023-05-29T16:34:08;25.27;;;5.82;;
60241;SDS011;46103;52.076;113.488;2023-05-29T16:37:15;17.55;;;6.32;;
60241;SDS011;46103;52.076;113.488;2023-05-29T16:40:20;24.15;;;6.40;;
60241;SDS011;46103;52.076;113.488;2023-05-29T16:43:27;17.23;;;5.15;;
60241;SDS011;46103;52.076;113.488;2023-05-29T16:46:33;15.98;;;6.90;;
60241;SDS011;46103;52.076;113.488;2023-05-29T16:49:39;14.82;;;7.13;;
60241;SDS011;46103;52.076;113.488;2023-05-29T16:52:46;15.25;;;6.80;;
60241;SDS011;46103;52.076;113.488;2023-05-29T16:55:52;21.85;;;7.65;;
60241;SDS011;46103;52.076;113.488;2023-05-29T16:58:56;15.38;;;6.03;;
60241;SDS011;46103;52.076;113.488;2023-05-29T17:02:03;12.27;;;6.03;;
60241;SDS011;46103;52.076;113.488;2023-05-29T17:05:09;11.93;;;4.82;;
60241;SDS011;46103;52.076;113.488;2023-05-29T17:08:15;15.43;;;5.78;;
60241;SDS011;46103;52.076;113.488;2023-05-29T17:11:20;20.77;;;6.75;;
60241;SDS011;46103;52.076;113.488;2023-05-29T17:14:26;16.45;;;7.07;;
60241;SDS011;46103;52.076;113.488;2023-05-29T17:17:31;15.18;;;5.00;;
60241;SDS011;46103;52.076;113.488;2023-05-29T17:20:35;16.52;;;6.07;;
60241;SDS011;46103;52.076;113.488;2023-05-29T17:23:42;13.57;;;5.07;;
60241;SDS011;46103;52.076;113.488;2023-05-29T17:26:47;19.00;;;6.18;;
60241;SDS011;46103;52.076;113.488;2023-05-29T17:29:52;13.05;;;5.75;;
60241;SDS011;46103;52.076;113.488;2023-05-29T17:32:57;16.65;;;5.32;;
60241;SDS011;46103;52.076;113.488;2023-05-29T17:36:07;12.25;;;4.80;;
60241;SDS011;46103;52.076;113.488;2023-05-29T17:39:13;14.77;;;5.70;;
60241;SDS011;46103;52.076;113.488;2023-05-29T17:42:20;12.73;;;5.80;;
60241;SDS011;46103;52.076;113.488;2023-05-29T17:45:26;12.30;;;5.43;;
60241;SDS011;46103;52.076;113.488;2023-05-29T17:48:30;13.85;;;5.40;;
60241;SDS011;46103;52.076;113.488;2023-05-29T17:51:36;9.88;;;4.35;;
60241;SDS011;46103;52.076;113.488;2023-05-29T17:54:43;8.35;;;4.32;;
60241;SDS011;46103;52.076;113.488;2023-05-29T17:57:48;10.68;;;4.25;;
60241;SDS011;46103;52.076;113.488;2023-05-29T18:00:54;8.98;;;3.80;;
60241;SDS011;46103;52.076;113.488;2023-05-29T18:04:01;14.93;;;5.18;;
60241;SDS011;46103;52.076;113.488;2023-05-29T18:10:16;10.15;;;4.30;;
60241;SDS011;46103;52.076;113.488;2023-05-29T18:13:25;9.52;;;4.18;;
60241;SDS011;46103;52.076;113.488;2023-05-29T18:16:35;12.70;;;4.57;;
60241;SDS011;46103;52.076;113.488;2023-05-29T18:19:43;16.33;;;5.30;;
60241;SDS011;46103;52.076;113.488;2023-05-29T18:22:48;13.70;;;4.68;;
60241;SDS011;46103;52.076;113.488;2023-05-29T18:25:54;12.45;;;4.88;;
60241;SDS011;46103;52.076;113.488;2023-05-29T18:28:58;9.77;;;4.10;;
60241;SDS011;46103;52.076;113.488;2023-05-29T18:32:07;9.43;;;4.40;;
60241;SDS011;46103;52.076;113.488;2023-05-29T18:35:13;11.63;;;4.20;;
60241;SDS011;46103;52.076;113.488;2023-05-29T18:38:19;8.52;;;3.65;;
60241;SDS011;46103;52.076;113.488;2023-05-29T18:41:25;12.20;;;4.32;;
60241;SDS011;46103;52.076;113.488;2023-05-29T18:44:30;5.75;;;3.40;;
60241;SDS011;46103;52.076;113.488;2023-05-29T18:47:36;8.10;;;3.65;;
60241;SDS011;46103;52.076;113.488;2023-05-29T18:50:42;12.73;;;3.85;;
60241;SDS011;46103;52.076;113.488;2023-05-29T18:53:47;9.90;;;3.42;;
60241;SDS011;46103;52.076;113.488;2023-05-29T18:56:54;8.00;;;3.50;;
60241;SDS011;46103;52.076;113.488;2023-05-29T19:00:00;5.82;;;3.70;;
60241;SDS011;46103;52.076;113.488;2023-05-29T19:03:08;11.18;;;4.45;;
60241;SDS011;46103;52.076;113.488;2023-05-29T19:06:16;10.25;;;3.65;;
60241;SDS011;46103;52.076;113.488;2023-05-29T19:09:24;8.27;;;3.63;;
60241;SDS011;46103;52.076;113.488;2023-05-29T19:12:32;10.27;;;3.70;;
60241;SDS011;46103;52.076;113.488;2023-05-29T19:15:38;9.13;;;4.27;;